Algowood — VCTD — position and weather

sailwx.info

Track history (hours):
 
Tides and Currents Weather Stations Pressure Air Temp Water Temp Dewpoint Dewpoint Depression Visibility Wind Speed Wind Dir Waves Ship Positions

Algowood

Last reported at 2018-Jan-20 23:31 UTC. Time now 2018-Jan-24 09:18 UTC.
Position N 45°24' W 083°24'.

Length 223 m; draft 7.5 m.

Type: Cargo ship. MMSI: 316001802.

Date/timePositionNaut miles runAvg speedWind from/ knotsBaromVisibWave heightAir tempDewpointWater temp
2018-Jan-20 23:31N 45°24' W 083°24'011.6
2018-Jan-20 23:29N 45°24' W 083°25'611.6
2018-Jan-20 23:00N 45°28' W 083°30'611.6
2018-Jan-20 22:30N 45°32' W 083°35'611.5
2018-Jan-20 22:00N 45°36' W 083°41'3311.4
2018-Jan-20 19:08N 45°50' W 084°24'311.3
2018-Jan-20 18:50N 45°51' W 084°29'411.4
2018-Jan-20 18:30N 45°51' W 084°34'510.5
2018-Jan-20 18:00N 45°49' W 084°41'510.2
2018-Jan-20 17:30N 45°50' W 084°49'5 9.9
2018-Jan-20 17:00N 45°50' W 084°55'510.0
2018-Jan-20 16:30N 45°51' W 085°03'510.3
2018-Jan-20 16:00N 45°52' W 085°10'510.5
2018-Jan-20 15:30N 45°52' W 085°17'4 7.6
2018-Jan-20 15:00N 45°53' W 085°23'3 5.1
2018-Jan-20 14:30N 45°52' W 085°26'0 0.5
2018-Jan-20 14:01N 45°53' W 085°26'0 0.5
2018-Jan-20 13:28N 45°53' W 085°26'0 0.0
2018-Jan-20 13:01N 45°53' W 085°26'0 0.0
2018-Jan-20 12:31N 45°53' W 085°26'0 0.0
2018-Jan-20 12:00N 45°53' W 085°26'0 0.0
2018-Jan-20 11:31N 45°53' W 085°26'0 0.0
2018-Jan-20 11:01N 45°53' W 085°26'0 0.0
2018-Jan-20 10:31N 45°53' W 085°26'0 0.1
2018-Jan-20 10:00N 45°53' W 085°26'0 0.0
2018-Jan-20 09:30N 45°53' W 085°26'0 0.1
2018-Jan-20 09:00N 45°53' W 085°26'0 0.0
2018-Jan-20 08:31N 45°53' W 085°26'0 0.1
2018-Jan-20 08:01N 45°53' W 085°26'0 0.0
2018-Jan-20 07:31N 45°53' W 085°26'0 0.1
2018-Jan-20 07:00N 45°53' W 085°26'0 0.2
2018-Jan-20 06:31N 45°53' W 085°26'0 0.1
2018-Jan-20 06:00N 45°53' W 085°26'0 0.2
2018-Jan-20 05:30N 45°53' W 085°26'0 0.1
2018-Jan-20 05:01N 45°53' W 085°26'0 0.0
2018-Jan-20 04:31N 45°53' W 085°26'0 0.1
2018-Jan-20 04:00N 45°53' W 085°26'0 0.1
2018-Jan-20 03:31N 45°53' W 085°26'0 0.1
2018-Jan-20 02:59N 45°53' W 085°26'0 0.2
2018-Jan-20 02:31N 45°53' W 085°26'0 0.2
2018-Jan-20 02:01N 45°53' W 085°26'0 0.1
2018-Jan-20 01:31N 45°53' W 085°26'0 0.1
2018-Jan-20 01:00N 45°53' W 085°26'0 0.0
2018-Jan-20 00:30N 45°53' W 085°26'0 0.1
2018-Jan-20 00:01N 45°53' W 085°26'0 0.1
2018-Jan-19 23:31N 45°53' W 085°26'0 0.1
2018-Jan-19 22:59N 45°53' W 085°26'0 0.1
2018-Jan-19 22:31N 45°53' W 085°26'0 0.1
2018-Jan-19 22:01N 45°53' W 085°26'0 0.1
2018-Jan-19 21:30N 45°53' W 085°26'0 0.2
2018-Jan-19 20:59N 45°53' W 085°26'0 0.1
2018-Jan-19 20:30N 45°53' W 085°26'0 0.7
2018-Jan-19 20:01N 45°53' W 085°27'2 3.3
2018-Jan-19 19:30N 45°53' W 085°29'5 9.8
2018-Jan-19 19:01N 45°53' W 085°36'611.0
2018-Jan-19 18:30N 45°53' W 085°44'20 1.7
2018-Jan-19 06:38N 45°53' W 086°12'0 0.2
2018-Jan-19 06:26N 45°53' W 086°12'0 0.0
2018-Jan-19 05:58N 45°53' W 086°12'0 0.0
2018-Jan-19 05:30N 45°53' W 086°12'12 1.4
2018-Jan-18 20:18N 45°52' W 085°55'3 7.0
2018-Jan-18 19:56N 45°52' W 085°51'3 7.4
2018-Jan-18 19:30N 45°53' W 085°46'4 8.6
2018-Jan-18 19:00N 45°53' W 085°40'2 3.6
2018-Jan-18 18:28N 45°53' W 085°38'4 8.9
2018-Jan-18 18:00N 45°53' W 085°43'5 9.1
2018-Jan-18 17:30N 45°52' W 085°50'  
Track history (hours):
 
Tides and Currents Weather Stations Pressure Air Temp Water Temp Dewpoint Dewpoint Depression Visibility Wind Speed Wind Dir Waves Ship Positions

Algowood

Last reported at 2018-Jan-20 23:31 UTC. Time now 2018-Jan-24 09:18 UTC.
Position N 45°24' W 083°24'.

Length 223 m; draft 7.5 m.

Type: Cargo ship. MMSI: 316001802.

Date/timePositionNaut miles runAvg speedWind from/ knotsBaromVisibWave heightAir tempDewpointWater temp
2018-Jan-20 23:31N 45°24' W 083°24'011.6
2018-Jan-20 23:29N 45°24' W 083°25'611.6
2018-Jan-20 23:00N 45°28' W 083°30'611.6
2018-Jan-20 22:30N 45°32' W 083°35'611.5
2018-Jan-20 22:00N 45°36' W 083°41'3311.4
2018-Jan-20 19:08N 45°50' W 084°24'311.3
2018-Jan-20 18:50N 45°51' W 084°29'411.4
2018-Jan-20 18:30N 45°51' W 084°34'510.5
2018-Jan-20 18:00N 45°49' W 084°41'510.2
2018-Jan-20 17:30N 45°50' W 084°49'5 9.9
2018-Jan-20 17:00N 45°50' W 084°55'510.0
2018-Jan-20 16:30N 45°51' W 085°03'510.3
2018-Jan-20 16:00N 45°52' W 085°10'510.5
2018-Jan-20 15:30N 45°52' W 085°17'4 7.6
2018-Jan-20 15:00N 45°53' W 085°23'3 5.1
2018-Jan-20 14:30N 45°52' W 085°26'0 0.5
2018-Jan-20 14:01N 45°53' W 085°26'0 0.5
2018-Jan-20 13:28N 45°53' W 085°26'0 0.0
2018-Jan-20 13:01N 45°53' W 085°26'0 0.0
2018-Jan-20 12:31N 45°53' W 085°26'0 0.0
2018-Jan-20 12:00N 45°53' W 085°26'0 0.0
2018-Jan-20 11:31N 45°53' W 085°26'0 0.0
2018-Jan-20 11:01N 45°53' W 085°26'0 0.0
2018-Jan-20 10:31N 45°53' W 085°26'0 0.1
2018-Jan-20 10:00N 45°53' W 085°26'0 0.0
2018-Jan-20 09:30N 45°53' W 085°26'0 0.1
2018-Jan-20 09:00N 45°53' W 085°26'0 0.0
2018-Jan-20 08:31N 45°53' W 085°26'0 0.1
2018-Jan-20 08:01N 45°53' W 085°26'0 0.0
2018-Jan-20 07:31N 45°53' W 085°26'0 0.1
2018-Jan-20 07:00N 45°53' W 085°26'0 0.2
2018-Jan-20 06:31N 45°53' W 085°26'0 0.1
2018-Jan-20 06:00N 45°53' W 085°26'0 0.2
2018-Jan-20 05:30N 45°53' W 085°26'0 0.1
2018-Jan-20 05:01N 45°53' W 085°26'0 0.0
2018-Jan-20 04:31N 45°53' W 085°26'0 0.1
2018-Jan-20 04:00N 45°53' W 085°26'0 0.1
2018-Jan-20 03:31N 45°53' W 085°26'0 0.1
2018-Jan-20 02:59N 45°53' W 085°26'0 0.2
2018-Jan-20 02:31N 45°53' W 085°26'0 0.2
2018-Jan-20 02:01N 45°53' W 085°26'0 0.1
2018-Jan-20 01:31N 45°53' W 085°26'0 0.1
2018-Jan-20 01:00N 45°53' W 085°26'0 0.0
2018-Jan-20 00:30N 45°53' W 085°26'0 0.1
2018-Jan-20 00:01N 45°53' W 085°26'0 0.1
2018-Jan-19 23:31N 45°53' W 085°26'0 0.1
2018-Jan-19 22:59N 45°53' W 085°26'0 0.1
2018-Jan-19 22:31N 45°53' W 085°26'0 0.1
2018-Jan-19 22:01N 45°53' W 085°26'0 0.1
2018-Jan-19 21:30N 45°53' W 085°26'0 0.2
2018-Jan-19 20:59N 45°53' W 085°26'0 0.1
2018-Jan-19 20:30N 45°53' W 085°26'0 0.7
2018-Jan-19 20:01N 45°53' W 085°27'2 3.3
2018-Jan-19 19:30N 45°53' W 085°29'5 9.8
2018-Jan-19 19:01N 45°53' W 085°36'611.0
2018-Jan-19 18:30N 45°53' W 085°44'20 1.7
2018-Jan-19 06:38N 45°53' W 086°12'0 0.2
2018-Jan-19 06:26N 45°53' W 086°12'0 0.0
2018-Jan-19 05:58N 45°53' W 086°12'0 0.0
2018-Jan-19 05:30N 45°53' W 086°12'12 1.4
2018-Jan-18 20:18N 45°52' W 085°55'3 7.0
2018-Jan-18 19:56N 45°52' W 085°51'3 7.4
2018-Jan-18 19:30N 45°53' W 085°46'4 8.6
2018-Jan-18 19:00N 45°53' W 085°40'2 3.6
2018-Jan-18 18:28N 45°53' W 085°38'4 8.9
2018-Jan-18 18:00N 45°53' W 085°43'5 9.1
2018-Jan-18 17:30N 45°52' W 085°50'  

Dump ship's entire track history